createdAt,value
2022-09-13T00:01:28.334Z,18.06
2022-09-13T00:03:55.362Z,18.06
2022-09-13T00:06:22.597Z,17.98
2022-09-13T00:08:49.910Z,17.95
2022-09-13T00:11:20.609Z,17.87
2022-09-13T00:13:47.956Z,17.87
2022-09-13T00:16:17.328Z,17.87
2022-09-13T00:18:44.386Z,17.80
2022-09-13T00:21:14.566Z,17.80
2022-09-13T00:23:44.966Z,17.82
2022-09-13T00:26:14.389Z,17.76
2022-09-13T00:28:41.632Z,17.82
2022-09-13T00:31:09.603Z,17.81
2022-09-13T00:33:37.220Z,17.80
2022-09-13T00:36:09.369Z,17.72
2022-09-13T00:38:40.267Z,17.70
2022-09-13T00:41:12.248Z,17.73
2022-09-13T00:43:48.426Z,17.70
2022-09-13T00:46:39.822Z,17.76
2022-09-13T00:49:24.001Z,17.64
2022-09-13T00:51:56.992Z,17.66
2022-09-13T00:54:27.595Z,17.57
2022-09-13T00:56:59.370Z,17.52
2022-09-13T00:59:53.348Z,17.61
2022-09-13T01:02:21.098Z,17.63
2022-09-13T01:04:48.521Z,17.46
2022-09-13T01:07:17.732Z,17.36
2022-09-13T01:09:49.794Z,17.46
2022-09-13T01:12:56.876Z,17.55
2022-09-13T01:15:24.179Z,17.50
2022-09-13T01:17:53.084Z,17.51
2022-09-13T01:20:28.497Z,17.51
2022-09-13T01:23:26.559Z,17.50
2022-09-13T01:26:27.065Z,17.45
2022-09-13T01:29:11.294Z,17.47
2022-09-13T01:31:46.035Z,17.51
2022-09-13T01:34:19.363Z,17.48
2022-09-13T01:36:46.185Z,17.49
2022-09-13T01:39:38.687Z,17.46
2022-09-13T01:42:17.589Z,17.39
2022-09-13T01:45:20.835Z,17.36
2022-09-13T01:48:28.546Z,17.33
2022-09-13T01:51:08.921Z,17.37
2022-09-13T01:53:57.477Z,17.41
2022-09-13T01:56:35.562Z,17.41
2022-09-13T01:59:11.882Z,17.45
2022-09-13T02:01:46.589Z,17.43
2022-09-13T02:04:19.537Z,17.43
2022-09-13T02:06:56.761Z,17.41
2022-09-13T02:09:27.758Z,17.37
2022-09-13T02:12:02.952Z,17.37
2022-09-13T02:14:38.752Z,17.31
2022-09-13T02:17:23.317Z,17.30
2022-09-13T02:19:58.182Z,17.27
2022-09-13T02:22:36.217Z,17.27
2022-09-13T02:25:09.067Z,17.30
2022-09-13T02:27:38.641Z,17.30
2022-09-13T02:30:08.253Z,17.32
2022-09-13T02:32:48.990Z,17.37
2022-09-13T02:35:42.397Z,17.40
2022-09-13T02:38:16.673Z,17.44
2022-09-13T02:40:49.492Z,17.51
2022-09-13T02:43:22.661Z,17.59
2022-09-13T02:46:16.729Z,17.61
2022-09-13T02:49:05.087Z,17.61
2022-09-13T02:51:49.851Z,17.61
2022-09-13T02:54:30.321Z,17.66
2022-09-13T02:57:12.969Z,17.63
2022-09-13T02:59:39.932Z,17.70
2022-09-13T03:02:11.333Z,17.72
2022-09-13T03:04:38.421Z,17.71
2022-09-13T03:07:13.253Z,17.73
2022-09-13T03:09:52.221Z,17.72
2022-09-13T03:12:31.209Z,17.76
2022-09-13T03:15:30.846Z,17.75
2022-09-13T03:18:31.297Z,17.78
2022-09-13T03:21:30.333Z,17.80
2022-09-13T03:24:30.422Z,17.81
2022-09-13T03:27:21.717Z,17.78
2022-09-13T03:30:04.345Z,17.78
2022-09-13T03:32:51.908Z,17.75
2022-09-13T03:35:32.209Z,17.80
2022-09-13T03:38:11.010Z,17.82
2022-09-13T03:40:47.165Z,17.78
2022-09-13T03:43:20.145Z,17.84
2022-09-13T03:45:54.758Z,17.84
2022-09-13T03:48:23.417Z,17.77
2022-09-13T03:50:50.688Z,17.83
2022-09-13T03:53:23.688Z,17.76
2022-09-13T03:55:50.660Z,17.81
2022-09-13T03:58:20.686Z,17.81
2022-09-13T04:00:47.844Z,17.82
2022-09-13T04:03:15.410Z,17.81
2022-09-13T04:05:42.382Z,17.83
2022-09-13T04:08:09.764Z,17.80
2022-09-13T04:10:37.652Z,17.84
2022-09-13T04:13:05.072Z,17.85
2022-09-13T04:15:32.005Z,17.82
2022-09-13T04:17:59.827Z,17.81
2022-09-13T04:20:26.828Z,17.81
2022-09-13T04:22:54.944Z,17.83
2022-09-13T04:25:22.875Z,17.87
2022-09-13T04:27:59.956Z,17.89
2022-09-13T04:30:28.072Z,17.87
2022-09-13T04:32:57.049Z,17.87
2022-09-13T04:35:23.952Z,17.88
2022-09-13T04:37:50.906Z,17.87
2022-09-13T04:40:17.871Z,17.88
2022-09-13T04:42:45.296Z,17.91
2022-09-13T04:45:12.256Z,17.92
2022-09-13T04:47:39.282Z,17.91
2022-09-13T04:50:07.081Z,17.91
2022-09-13T04:52:34.122Z,17.88
2022-09-13T04:55:01.972Z,17.89
2022-09-13T04:57:29.250Z,17.88
2022-09-13T04:59:56.177Z,17.90
2022-09-13T05:02:23.230Z,17.86
2022-09-13T05:04:50.200Z,17.88
2022-09-13T05:07:17.497Z,17.89
2022-09-13T05:09:44.492Z,17.90
2022-09-13T05:12:11.768Z,17.92
2022-09-13T05:14:38.797Z,17.92
2022-09-13T05:17:05.757Z,17.97
2022-09-13T05:19:32.963Z,17.97
2022-09-13T05:22:00.422Z,18.00
2022-09-13T05:24:27.605Z,18.01
2022-09-13T05:26:54.521Z,18.00
2022-09-13T05:29:21.409Z,18.02
2022-09-13T05:31:48.379Z,18.00
2022-09-13T05:34:17.809Z,18.02
2022-09-13T05:36:44.797Z,18.02
2022-09-13T05:42:05.044Z,18.04
2022-09-13T05:44:32.028Z,18.03
2022-09-13T05:46:58.924Z,18.02
2022-09-13T05:49:25.918Z,18.08
2022-09-13T05:51:52.858Z,18.05
2022-09-13T05:54:19.818Z,18.13
2022-09-13T05:56:46.717Z,18.17
2022-09-13T05:59:14.679Z,18.30
2022-09-13T06:01:42.109Z,18.32
2022-09-13T06:04:09.100Z,18.37
2022-09-13T06:06:36.136Z,18.44
2022-09-13T06:09:06.340Z,18.49
2022-09-13T06:11:33.355Z,18.45
2022-09-13T06:14:00.238Z,18.47
2022-09-13T06:16:27.268Z,18.52
2022-09-13T06:18:54.272Z,18.63
2022-09-13T06:21:26.959Z,18.55
2022-09-13T06:23:56.149Z,18.63
2022-09-13T06:26:25.393Z,18.61
2022-09-13T06:29:17.020Z,18.60
2022-09-13T06:31:45.182Z,18.57
2022-09-13T06:34:17.350Z,18.59
2022-09-13T06:36:44.358Z,18.59
2022-09-13T06:39:11.260Z,18.58
2022-09-13T06:41:38.601Z,18.60
2022-09-13T06:44:05.583Z,18.65
2022-09-13T06:46:35.817Z,18.71
2022-09-13T06:49:05.785Z,18.70
2022-09-13T06:51:34.462Z,18.75
2022-09-13T06:54:03.768Z,18.78
2022-09-13T06:56:33.213Z,18.84
2022-09-13T06:59:04.604Z,18.88
2022-09-13T07:01:32.637Z,18.97
2022-09-13T07:04:10.819Z,19.02
2022-09-13T07:06:48.773Z,19.05
2022-09-13T07:09:19.082Z,19.11
2022-09-13T07:11:47.181Z,19.16
2022-09-13T07:14:25.541Z,19.22
2022-09-13T07:16:53.103Z,19.24
2022-09-13T07:19:26.316Z,19.23
2022-09-13T07:21:54.725Z,19.41
2022-09-13T07:24:22.292Z,19.46
2022-09-13T07:26:49.804Z,19.51
2022-09-13T07:29:19.656Z,19.59
2022-09-13T07:31:49.259Z,19.63
2022-09-13T07:34:17.630Z,19.67
2022-09-13T07:36:46.658Z,19.76
2022-09-13T07:39:17.318Z,19.85
2022-09-13T07:41:48.162Z,19.90
2022-09-13T07:44:15.296Z,19.92
2022-09-13T07:46:43.613Z,19.99
2022-09-13T07:49:16.470Z,20.02
2022-09-13T07:51:44.591Z,20.11
2022-09-13T07:54:17.496Z,20.17
2022-09-13T07:56:45.346Z,20.17
2022-09-13T07:59:16.586Z,20.18
2022-09-13T08:01:49.394Z,20.28
2022-09-13T08:04:19.758Z,20.36
2022-09-13T08:06:47.105Z,20.37
2022-09-13T08:09:14.857Z,20.48
2022-09-13T08:11:45.106Z,20.54
2022-09-13T08:14:14.107Z,20.63
2022-09-13T08:16:41.280Z,20.70
2022-09-13T08:19:11.987Z,20.78
2022-09-13T08:21:40.554Z,20.85
2022-09-13T08:24:13.346Z,20.91
2022-09-13T08:26:40.257Z,20.89
2022-09-13T08:29:07.672Z,20.96
2022-09-13T08:31:35.101Z,21.02
2022-09-13T08:34:02.169Z,21.09
2022-09-13T08:36:29.637Z,21.10
2022-09-13T08:38:59.127Z,21.13
2022-09-13T08:41:31.914Z,21.17
2022-09-13T08:44:29.551Z,21.23
2022-09-13T08:47:15.022Z,21.25
2022-09-13T08:49:46.654Z,21.25
2022-09-13T08:52:25.426Z,21.24
2022-09-13T08:54:57.945Z,21.24
2022-09-13T08:57:31.079Z,21.26
2022-09-13T09:00:10.221Z,21.31
2022-09-13T09:03:30.710Z,21.35
2022-09-13T09:05:57.635Z,21.38
2022-09-13T09:08:48.059Z,21.49
2022-09-13T09:11:40.810Z,21.41
2022-09-13T09:14:20.669Z,21.56
2022-09-13T09:16:53.553Z,21.64
2022-09-13T09:19:30.237Z,21.70
2022-09-13T09:21:59.300Z,21.75
2022-09-13T09:24:26.245Z,21.75
2022-09-13T09:26:57.144Z,21.84
2022-09-13T09:29:32.592Z,21.84
2022-09-13T09:32:45.549Z,21.88
2022-09-13T09:35:46.042Z,21.94
2022-09-13T09:38:44.309Z,21.90
2022-09-13T09:41:23.253Z,22.00
2022-09-13T09:43:52.515Z,22.06
2022-09-13T09:46:24.771Z,22.12
2022-09-13T09:48:56.402Z,22.11
2022-09-13T09:51:26.186Z,22.15
2022-09-13T09:54:02.093Z,22.15
2022-09-13T09:56:33.934Z,22.16
2022-09-13T09:59:02.409Z,22.19
2022-09-13T10:01:35.685Z,22.15
2022-09-13T10:04:11.407Z,22.14
2022-09-13T10:06:40.525Z,22.13
2022-09-13T10:09:13.425Z,22.17
2022-09-13T10:11:50.936Z,22.21
2022-09-13T10:14:35.907Z,22.19
2022-09-13T10:17:17.265Z,22.18
2022-09-13T10:19:58.650Z,22.11
2022-09-13T10:22:26.936Z,22.09
2022-09-13T10:24:54.068Z,22.06
2022-09-13T10:27:26.866Z,21.99
2022-09-13T10:29:59.523Z,22.00
2022-09-13T10:32:28.694Z,22.02
2022-09-13T10:34:59.112Z,22.11
2022-09-13T10:37:33.599Z,22.15
2022-09-13T10:40:06.136Z,22.23
2022-09-13T10:42:33.627Z,22.30
2022-09-13T10:45:06.326Z,22.35
2022-09-13T10:47:39.241Z,22.41
2022-09-13T10:50:27.747Z,22.50
2022-09-13T10:52:59.293Z,22.57
2022-09-13T10:55:27.392Z,22.72
2022-09-13T10:58:03.484Z,22.78
2022-09-13T11:00:36.789Z,22.88
2022-09-13T11:03:21.900Z,23.02
2022-09-13T11:08:47.536Z,23.38
2022-09-13T11:11:53.420Z,23.51
2022-09-13T11:14:58.471Z,23.70
2022-09-13T11:17:37.261Z,23.83
2022-09-13T11:20:13.454Z,23.95
2022-09-13T11:23:22.214Z,24.06
2022-09-13T11:26:10.075Z,24.17
2022-09-13T11:29:15.022Z,24.28
2022-09-13T11:31:56.013Z,24.35
2022-09-13T11:34:33.121Z,24.39
2022-09-13T11:37:18.202Z,24.42
2022-09-13T11:40:10.303Z,24.43
2022-09-13T11:42:48.854Z,24.41
2022-09-13T11:45:31.285Z,24.38
2022-09-13T11:48:30.538Z,24.43
2022-09-13T11:51:25.139Z,24.52
2022-09-13T11:54:27.770Z,24.40
2022-09-13T11:56:59.380Z,24.52
2022-09-13T11:59:56.096Z,24.60
2022-09-13T12:02:52.469Z,24.56
2022-09-13T12:05:49.177Z,24.62
2022-09-13T12:08:42.334Z,24.47
2022-09-13T12:11:36.412Z,24.33
2022-09-13T12:14:27.701Z,24.27
2022-09-13T12:17:49.965Z,24.17
2022-09-13T12:20:27.429Z,24.03
2022-09-13T12:22:57.989Z,24.05
2022-09-13T12:25:56.965Z,24.05
2022-09-13T12:29:06.903Z,24.01
2022-09-13T12:31:33.917Z,23.99
2022-09-13T12:34:07.492Z,23.95
2022-09-13T12:37:01.969Z,23.91
2022-09-13T12:39:56.381Z,23.93
2022-09-13T12:42:52.521Z,24.01
2022-09-13T12:46:16.332Z,24.07
2022-09-13T12:48:43.341Z,24.14
2022-09-13T12:51:28.100Z,24.20
2022-09-13T12:54:07.426Z,24.26
2022-09-13T12:56:43.132Z,24.30
2022-09-13T12:59:39.626Z,24.36
2022-09-13T13:02:40.641Z,24.58
2022-09-13T13:05:19.546Z,24.67
2022-09-13T13:07:53.021Z,24.67
2022-09-13T13:10:33.506Z,24.70
2022-09-13T13:13:24.050Z,24.80
2022-09-13T13:15:50.892Z,24.87
2022-09-13T13:18:27.296Z,24.96
2022-09-13T13:20:54.156Z,25.01
2022-09-13T13:23:39.902Z,24.99
2022-09-13T13:26:08.637Z,24.91
2022-09-13T13:28:44.590Z,24.90
2022-09-13T13:31:30.257Z,24.91
2022-09-13T13:34:06.052Z,24.97
2022-09-13T13:37:04.146Z,24.98
2022-09-13T13:40:11.019Z,25.02
2022-09-13T13:42:39.523Z,25.08
2022-09-13T13:45:17.696Z,25.07
2022-09-13T13:48:12.405Z,25.09
2022-09-13T13:51:15.218Z,25.18
2022-09-13T13:54:22.557Z,25.38
2022-09-13T13:56:50.002Z,25.55
2022-09-13T13:59:23.262Z,25.75
2022-09-13T14:01:55.576Z,25.91
2022-09-13T14:04:34.644Z,26.11
2022-09-13T14:07:21.323Z,26.31
2022-09-13T14:10:39.616Z,26.38
2022-09-13T14:13:25.246Z,26.36
2022-09-13T14:16:39.146Z,26.27
2022-09-13T14:19:34.269Z,26.18
2022-09-13T14:22:21.063Z,26.10
2022-09-13T14:24:49.025Z,26.06
2022-09-13T14:27:33.261Z,26.02
2022-09-13T14:30:22.834Z,25.97
2022-09-13T14:32:55.502Z,25.94
2022-09-13T14:35:35.258Z,25.95
2022-09-13T14:38:30.963Z,26.10
2022-09-13T14:41:31.395Z,26.08
2022-09-13T14:44:24.947Z,26.04
2022-09-13T14:47:19.353Z,26.15
2022-09-13T14:49:51.044Z,26.27
2022-09-13T14:52:29.857Z,26.32
2022-09-13T14:55:04.199Z,26.23
2022-09-13T14:57:36.087Z,26.16
2022-09-13T15:00:15.704Z,26.06
2022-09-13T15:02:53.791Z,26.01
2022-09-13T15:05:40.109Z,25.91
2022-09-13T15:08:25.841Z,25.80
2022-09-13T15:10:53.116Z,25.70
2022-09-13T15:13:42.589Z,25.63
2022-09-13T15:16:26.173Z,25.56
2022-09-13T15:19:35.671Z,25.48
2022-09-13T15:22:06.261Z,25.45
2022-09-13T15:24:34.466Z,25.35
2022-09-13T15:27:07.968Z,25.34
2022-09-13T15:29:37.433Z,25.31
2022-09-13T15:32:29.307Z,25.24
2022-09-13T15:34:58.103Z,25.26
2022-09-13T15:37:34.403Z,25.22
2022-09-13T15:40:20.175Z,25.16
2022-09-13T15:42:49.005Z,25.11
2022-09-13T15:45:17.317Z,25.07
2022-09-13T15:47:46.759Z,25.04
2022-09-13T15:50:21.036Z,24.98
2022-09-13T15:53:11.403Z,24.92
2022-09-13T15:55:39.516Z,24.81
2022-09-13T15:58:06.421Z,24.84
2022-09-13T16:00:33.381Z,24.80
2022-09-13T16:03:00.333Z,24.76
2022-09-13T16:05:46.080Z,24.68
2022-09-13T16:08:13.280Z,24.69
2022-09-13T16:10:40.264Z,24.61
2022-09-13T16:13:07.196Z,24.66
2022-09-13T16:15:34.425Z,24.65
2022-09-13T16:18:19.981Z,24.60
2022-09-13T16:20:47.534Z,24.56
2022-09-13T16:23:14.462Z,24.40
2022-09-13T16:25:42.040Z,24.50
2022-09-13T16:28:27.834Z,24.45
2022-09-13T16:30:54.954Z,24.42
2022-09-13T16:33:22.472Z,24.37
2022-09-13T16:35:49.415Z,24.32
2022-09-13T16:38:16.388Z,24.25
2022-09-13T16:40:43.478Z,24.18
2022-09-13T16:43:22.447Z,24.12
2022-09-13T16:45:51.372Z,24.07
2022-09-13T16:48:18.297Z,24.02
2022-09-13T16:50:45.510Z,23.98
2022-09-13T16:53:35.294Z,23.84
2022-09-13T16:56:17.307Z,23.81
2022-09-13T16:58:49.226Z,23.75
2022-09-13T17:01:19.029Z,23.67
2022-09-13T17:03:46.049Z,23.59
2022-09-13T17:06:15.416Z,23.46
2022-09-13T17:08:46.629Z,23.44
2022-09-13T17:11:15.436Z,23.39
2022-09-13T17:13:42.419Z,23.30
2022-09-13T17:16:25.526Z,23.27
2022-09-13T17:18:53.053Z,23.24
2022-09-13T17:21:21.707Z,23.15
2022-09-13T17:23:49.386Z,23.10
2022-09-13T17:26:16.349Z,23.06
2022-09-13T17:29:01.806Z,22.99
2022-09-13T17:31:28.880Z,22.92
2022-09-13T17:33:56.180Z,22.85
2022-09-13T17:36:23.111Z,22.77
2022-09-13T17:39:08.902Z,22.70
2022-09-13T17:41:36.378Z,22.65
2022-09-13T17:44:03.838Z,22.59
2022-09-13T17:46:30.891Z,22.54
2022-09-13T17:48:59.455Z,22.48
2022-09-13T17:51:45.059Z,22.43
2022-09-13T17:54:12.897Z,22.37
2022-09-13T17:56:42.648Z,22.32
2022-09-13T17:59:10.925Z,22.25
2022-09-13T18:01:40.684Z,22.17
2022-09-13T18:04:08.435Z,22.10
2022-09-13T18:06:36.688Z,22.09
2022-09-13T18:09:03.693Z,22.07
2022-09-13T18:11:30.709Z,22.05
2022-09-13T18:13:57.654Z,22.01
2022-09-13T18:16:26.300Z,21.98
2022-09-13T18:18:53.511Z,21.97
2022-09-13T18:21:23.427Z,21.90
2022-09-13T18:23:52.937Z,21.81
2022-09-13T18:26:38.406Z,21.76
2022-09-13T18:29:09.980Z,21.73
2022-09-13T18:31:48.660Z,21.70
2022-09-13T18:34:34.337Z,21.63
2022-09-13T18:37:01.462Z,21.57
2022-09-13T18:39:46.753Z,21.53
2022-09-13T18:42:14.009Z,21.50
2022-09-13T18:44:40.954Z,21.52
2022-09-13T18:47:08.701Z,21.47
2022-09-13T18:49:35.700Z,21.42
2022-09-13T18:52:21.005Z,21.37
2022-09-13T18:54:48.096Z,21.43
2022-09-13T18:57:15.133Z,21.43
2022-09-13T18:59:42.150Z,21.35
2022-09-13T19:02:27.524Z,21.15
2022-09-13T19:04:55.888Z,21.21
2022-09-13T19:07:23.233Z,21.25
2022-09-13T19:09:50.212Z,21.20
2022-09-13T19:12:17.268Z,21.20
2022-09-13T19:14:44.543Z,21.17
2022-09-13T19:17:30.105Z,20.99
2022-09-13T19:19:57.107Z,21.04
2022-09-13T19:22:24.037Z,20.95
2022-09-13T19:24:52.397Z,20.86
2022-09-13T19:27:19.749Z,21.00
2022-09-13T19:30:02.673Z,21.02
2022-09-13T19:32:48.382Z,21.00
2022-09-13T19:35:15.399Z,21.04
2022-09-13T19:38:00.745Z,21.08
2022-09-13T19:40:28.088Z,21.09
2022-09-13T19:42:55.098Z,20.91
2022-09-13T19:45:22.536Z,20.91
2022-09-13T19:48:34.749Z,20.95
2022-09-13T19:50:50.274Z,20.77
2022-09-13T19:53:17.259Z,20.75
2022-09-13T19:55:46.609Z,20.80
2022-09-13T19:58:15.173Z,20.84
2022-09-13T20:00:43.355Z,20.78
2022-09-13T20:03:10.278Z,20.74
2022-09-13T20:05:37.598Z,20.72
2022-09-13T20:08:04.909Z,20.72
2022-09-13T20:10:32.823Z,20.67
2022-09-13T20:13:19.469Z,20.69
2022-09-13T20:15:48.391Z,20.67
2022-09-13T20:18:15.519Z,20.68
2022-09-13T20:20:43.314Z,20.72
2022-09-13T20:23:10.425Z,20.70
2022-09-13T20:25:40.506Z,20.67
2022-09-13T20:28:26.353Z,20.68
2022-09-13T20:30:55.153Z,20.74
2022-09-13T20:33:22.832Z,20.70
2022-09-13T20:35:50.339Z,20.63
2022-09-13T20:38:35.906Z,20.51
2022-09-13T20:41:08.063Z,20.44
2022-09-13T20:43:37.285Z,20.47
2022-09-13T20:46:05.636Z,20.45
2022-09-13T20:48:33.993Z,20.47
2022-09-13T20:51:21.611Z,20.48
2022-09-13T20:53:53.509Z,20.45
2022-09-13T20:56:20.497Z,20.53
2022-09-13T20:58:56.867Z,20.50
2022-09-13T21:01:43.332Z,20.49
2022-09-13T21:04:10.508Z,20.44
2022-09-13T21:07:02.005Z,20.39
2022-09-13T21:09:29.204Z,20.37
2022-09-13T21:11:56.155Z,20.31
2022-09-13T21:14:23.592Z,20.28
2022-09-13T21:16:50.616Z,20.30
2022-09-13T21:19:17.581Z,20.30
2022-09-13T21:21:44.556Z,20.30
2022-09-13T21:24:12.587Z,20.27
2022-09-13T21:26:42.237Z,20.20
2022-09-13T21:29:11.254Z,20.18
2022-09-13T21:31:38.767Z,20.11
2022-09-13T21:34:08.530Z,20.10
2022-09-13T21:36:35.756Z,20.05
2022-09-13T21:39:15.105Z,20.21
2022-09-13T21:41:42.933Z,20.23
2022-09-13T21:44:10.234Z,20.25
2022-09-13T21:46:38.557Z,20.25
2022-09-13T21:49:08.056Z,20.18
2022-09-13T21:51:49.654Z,20.13
2022-09-13T21:54:19.089Z,20.14
2022-09-13T21:56:51.733Z,20.12
2022-09-13T21:59:36.992Z,20.13
2022-09-13T22:02:04.157Z,20.13
2022-09-13T22:04:32.975Z,20.11
2022-09-13T22:06:59.918Z,20.14
2022-09-13T22:09:27.688Z,20.17
2022-09-13T22:11:56.259Z,20.19
2022-09-13T22:14:23.229Z,20.20
2022-09-13T22:16:52.606Z,20.09
2022-09-13T22:19:25.857Z,20.13
2022-09-13T22:21:55.483Z,20.16
2022-09-13T22:24:24.506Z,20.08
2022-09-13T22:27:09.860Z,20.00
2022-09-13T22:29:36.880Z,19.91
2022-09-13T22:32:25.070Z,19.94
2022-09-13T22:34:53.598Z,19.84
2022-09-13T22:37:20.516Z,19.85
2022-09-13T22:39:47.532Z,19.87
2022-09-13T22:42:14.508Z,19.82
2022-09-13T22:44:41.591Z,19.80
2022-09-13T22:47:27.723Z,19.88
2022-09-13T22:49:54.689Z,19.90
2022-09-13T22:52:21.593Z,19.90
2022-09-13T22:54:50.765Z,19.88
2022-09-13T22:57:17.738Z,19.82
2022-09-13T23:00:03.556Z,19.75
2022-09-13T23:02:31.040Z,19.83
2022-09-13T23:04:57.944Z,19.78
2022-09-13T23:07:25.249Z,19.80
2022-09-13T23:09:52.193Z,19.79
2022-09-13T23:12:37.617Z,19.83
2022-09-13T23:15:05.069Z,19.84
2022-09-13T23:17:31.956Z,19.85
2022-09-13T23:19:58.878Z,19.75
2022-09-13T23:22:25.805Z,19.70
2022-09-13T23:24:52.710Z,19.66
2022-09-13T23:27:19.624Z,19.64
2022-09-13T23:29:46.836Z,19.62
2022-09-13T23:32:13.814Z,19.60
2022-09-13T23:34:40.740Z,19.62
2022-09-13T23:37:07.773Z,19.50
2022-09-13T23:39:53.333Z,19.50
2022-09-13T23:42:21.252Z,19.57
2022-09-13T23:44:48.176Z,19.64
2022-09-13T23:47:15.092Z,19.65
2022-09-13T23:50:00.653Z,19.63
2022-09-13T23:52:27.706Z,19.63
2022-09-13T23:54:54.652Z,19.65
2022-09-13T23:57:21.537Z,19.70
2022-09-13T23:59:48.593Z,19.76
